Aviation Digital Data Service (ADDS)

Output produced by METARs form (1934 UTC 25 March 2017)
found at http://www.aviationweather.gov/adds/metars/
 
LYBE 251930Z 21001KT CAVOK 11/03 Q1020 NOSIG
TAF LYBE 251700Z 2518/2618 02003KT 9999 SCT033 TX12/2518Z TN05/2605Z 
     BECMG 2609/2611 02013KT 
     TEMPO 2609/2612 SHRA SCT027TCU BKN030
       
LYNI 251930Z 01003KT 310V090 CAVOK 12/04 Q1019
TAF LYNI 251700Z 2518/2618 32007KT 9999 SCT033 TX13/2612Z TN05/2604Z 
     TEMPO 2608/2611 SHRA SCT030TCU BKN033 
     BECMG 2611/2613 32025KT
       
LYVR 251930Z VRB02KT CAVOK 06/00 Q1019 NOSIG
TAF LYVR 251700Z 2518/2618 02003KT 9999 SCT033 TX11/2518Z TN04/2605Z 
     BECMG 2609/2611 02013KT 
     TEMPO 2609/2613 5000 SHRA SCT027TCU BKN030
       
LYKV 251930Z 02002KT 9999 BKN043 10/04 Q1020 NOSIG
TAF LYKV 251700Z 2518/2618 32005KT 9999 SCT035 TX14/2518Z TN03/2605Z 
     TEMPO 2610/2616 34015KT 5000 -RA BKN013 BKN030
       
LYBT 251930Z 00000KT CAVOK 08/03 Q1020 NOSIG
TAF LYBT 251700Z 2518/2618 02003KT 9999 SCT033 TX12/2518Z TN04/2605Z 
     BECMG 2609/2611 02013KT 
     TEMPO 2609/2612 5000 SHRA SCT027TCU BKN030
       
LYUZ 251930Z AUTO 00000KT //// // ////// 08/07 Q1020
TAF LYUZ 251100Z 2512/2612 36006KT 8000 BKN017 TX11/2513Z TN03/2612Z 
     BECMG 2518/2520 3000 BR BKN007 
     BECMG 2609/2611 1000 -RA BKN004 BKN010